Time;durP1;ratioP1;P1;durP2;ratioP2;P2;SDS_P1;SDS_P2;PMS_P1;PMS_P2;Temp;Humidity;BMP_temperature;BMP_pressure;BME280_temperature;BME280_humidity;BME280_pressure;Samples;Min_cycle;Max_cycle;Signal;HPM_P1;HPM_P2
2020/12/21 00:00:11;;;;;;;11.30;6.13;;;;;;;5.30;91.59;100798.00;5083275;28;20937;-75
2020/12/21 00:02:37;;;;;;;13.17;7.27;;;;;;;5.29;91.88;100796.28;5084144;28;20448;-75
2020/12/21 00:05:04;;;;;;;16.47;7.30;;;;;;;5.23;91.75;100801.97;5085142;28;20479;-75
2020/12/21 00:07:30;;;;;;;11.57;7.50;;;;;;;5.02;91.73;100804.09;5084443;28;20480;-74
2020/12/21 00:09:56;;;;;;;13.80;7.00;;;;;;;5.14;91.89;100792.78;5085657;28;20959;-76
2020/12/21 00:12:23;;;;;;;10.73;6.40;;;;;;;5.14;91.78;100797.19;5083818;28;20476;-73
2020/12/21 00:14:50;;;;;;;11.63;8.00;;;;;;;5.10;91.70;100793.88;5085689;28;20455;-75
2020/12/21 00:17:16;;;;;;;11.50;6.57;;;;;;;5.21;91.53;100802.06;5083445;28;20925;-76
2020/12/21 00:19:42;;;;;;;20.10;7.10;;;;;;;5.11;91.85;100803.53;5084918;28;20443;-75
2020/12/21 00:22:08;;;;;;;12.83;6.63;;;;;;;5.17;91.67;100797.03;5083859;28;20519;-75
2020/12/21 00:24:34;;;;;;;13.80;8.20;;;;;;;5.11;91.87;100808.00;5085726;28;20451;-74
2020/12/21 00:27:01;;;;;;;13.90;7.43;;;;;;;5.01;91.89;100802.38;5101604;28;20493;-76
2020/12/21 00:29:28;;;;;;;13.50;8.00;;;;;;;5.08;91.87;100806.38;5105465;28;20475;-75
2020/12/21 00:31:56;;;;;;;14.40;7.40;;;;;;;5.03;91.87;100801.34;5104308;28;20499;-75
2020/12/21 00:34:22;;;;;;;13.43;7.00;;;;;;;4.98;92.06;100795.50;5104533;28;20468;-76
2020/12/21 00:36:51;;;;;;;12.67;7.77;;;;;;;4.95;92.03;100794.78;5115801;28;20477;-76
2020/12/21 00:39:18;;;;;;;20.77;7.60;;;;;;;4.86;92.12;100786.47;5111040;28;20834;-76
2020/12/21 00:41:44;;;;;;;19.13;6.20;;;;;;;4.89;92.16;100788.06;5105275;27;20510;-76
2020/12/21 00:44:11;;;;;;;14.77;7.63;;;;;;;4.88;92.08;100789.03;5105646;28;20958;-76
2020/12/21 00:46:39;;;;;;;13.40;7.93;;;;;;;4.94;91.58;100790.44;5104710;28;20482;-75
2020/12/21 00:49:06;;;;;;;12.13;8.00;;;;;;;4.85;91.89;100787.41;5106119;28;20806;-76
2020/12/21 00:51:32;;;;;;;14.23;8.90;;;;;;;4.86;92.00;100794.41;5104536;27;20459;-76
2020/12/21 00:53:58;;;;;;;13.23;7.80;;;;;;;4.90;91.61;100795.94;5106197;28;20443;-75
2020/12/21 00:56:25;;;;;;;19.27;9.17;;;;;;;4.90;91.89;100800.38;5104326;28;20463;-75
2020/12/21 00:58:51;;;;;;;15.37;6.53;;;;;;;5.01;91.15;100789.97;5106455;28;20446;-76
2020/12/21 01:01:20;;;;;;;16.30;9.13;;;;;;;4.99;90.87;100797.19;5104739;28;20466;-75
2020/12/21 01:03:47;;;;;;;15.57;7.03;;;;;;;5.02;90.99;100797.00;5105285;28;20463;-76
2020/12/21 01:06:13;;;;;;;17.17;7.50;;;;;;;5.10;90.42;100791.22;5104561;27;20527;-75
2020/12/21 01:08:40;;;;;;;14.10;6.20;;;;;;;5.04;90.53;100796.91;5105933;28;20876;-76
2020/12/21 01:11:10;;;;;;;11.10;6.10;;;;;;;4.88;90.57;100799.63;5104431;28;20474;-76
2020/12/21 01:13:36;;;;;;;10.17;5.53;;;;;;;5.08;90.39;100793.13;5104853;28;20445;-75
2020/12/21 01:16:02;;;;;;;10.23;4.80;;;;;;;4.98;90.65;100798.13;5104378;27;20483;-76
2020/12/21 01:18:28;;;;;;;13.63;5.23;;;;;;;4.96;90.45;100786.75;5105492;28;20475;-76
2020/12/21 01:20:55;;;;;;;11.53;6.13;;;;;;;4.76;90.80;100787.94;5114210;27;20462;-75
2020/12/21 01:23:21;;;;;;;10.97;5.90;;;;;;;4.84;91.07;100793.66;5119330;28;20431;-76
2020/12/21 01:25:47;;;;;;;11.73;5.40;;;;;;;4.83;90.71;100794.59;5104284;28;20478;-75
2020/12/21 01:28:14;;;;;;;20.23;5.73;;;;;;;4.97;90.35;100785.81;5107072;28;20450;-75
2020/12/21 01:30:40;;;;;;;14.67;5.93;;;;;;;4.89;90.08;100791.56;5124110;27;20474;-75
2020/12/21 01:33:06;;;;;;;18.33;6.43;;;;;;;4.95;89.88;100789.50;5122020;28;20443;-75
2020/12/21 01:35:32;;;;;;;12.60;6.17;;;;;;;4.95;90.03;100786.84;5111142;27;20489;-75
2020/12/21 01:37:59;;;;;;;11.57;6.73;;;;;;;4.81;90.27;100791.19;5122798;28;20498;-75
2020/12/21 01:40:25;;;;;;;13.87;6.30;;;;;;;4.67;90.73;100794.63;5104161;28;20479;-75
2020/12/21 01:42:52;;;;;;;13.03;5.30;;;;;;;4.70;90.86;100786.53;5105238;28;20431;-75
2020/12/21 01:45:18;;;;;;;13.33;5.70;;;;;;;4.80;90.69;100784.16;5103519;28;20472;-74
2020/12/21 01:47:44;;;;;;;17.53;5.70;;;;;;;4.78;90.26;100793.16;5104981;28;20486;-75
2020/12/21 01:50:11;;;;;;;12.40;5.27;;;;;;;4.73;90.10;100790.78;5103032;27;20434;-75
2020/12/21 01:52:37;;;;;;;15.80;5.17;;;;;;;4.61;90.58;100792.34;5105502;28;20435;-75
2020/12/21 01:55:04;;;;;;;14.83;6.00;;;;;;;4.44;90.89;100793.28;5105220;28;20462;-75
2020/12/21 01:57:30;;;;;;;16.40;5.93;;;;;;;4.44;91.03;100790.66;5083687;28;20476;-76
2020/12/21 01:59:56;;;;;;;13.00;5.53;;;;;;;4.34;91.32;100794.78;5084497;28;20444;-75
2020/12/21 02:02:22;;;;;;;11.03;4.90;;;;;;;4.37;91.51;100797.25;5114049;27;20483;-75
2020/12/21 02:04:49;;;;;;;11.67;5.40;;;;;;;4.23;91.74;100792.72;5105199;28;20480;-75
2020/12/21 02:07:15;;;;;;;12.33;4.90;;;;;;;4.37;91.38;100796.41;5103043;27;20478;-75
2020/12/21 02:09:42;;;;;;;15.50;6.00;;;;;;;4.48;91.27;100800.13;5105755;28;20439;-75
2020/12/21 02:12:09;;;;;;;15.30;5.60;;;;;;;4.47;91.34;100802.88;5102915;28;20483;-75
2020/12/21 02:14:35;;;;;;;13.57;4.90;;;;;;;4.66;90.38;100800.03;5104315;28;20458;-75
2020/12/21 02:17:01;;;;;;;16.60;4.90;;;;;;;4.51;90.78;100799.97;5102575;28;20513;-74
2020/12/21 02:19:27;;;;;;;12.70;6.43;;;;;;;4.61;90.43;100800.28;5104909;28;20471;-76
2020/12/21 02:21:54;;;;;;;9.73;5.30;;;;;;;4.55;90.62;100802.41;5104431;27;20467;-75
2020/12/21 02:24:20;;;;;;;9.13;5.60;;;;;;;4.62;90.35;100804.63;5105295;28;20576;-76
2020/12/21 02:26:47;;;;;;;10.47;4.90;;;;;;;4.53;90.72;100797.22;5103006;27;20903;-75
2020/12/21 02:29:13;;;;;;;10.67;5.40;;;;;;;4.56;90.71;100809.44;5105216;28;20431;-75
2020/12/21 02:31:39;;;;;;;12.83;4.80;;;;;;;4.40;91.02;100801.53;5102808;28;20490;-76
2020/12/21 02:34:05;;;;;;;11.90;5.90;;;;;;;4.66;90.29;100807.97;5104591;28;20516;-75
2020/12/21 02:36:31;;;;;;;10.47;4.53;;;;;;;4.64;90.20;100797.44;5111737;27;21021;-74
2020/12/21 02:38:58;;;;;;;13.57;4.80;;;;;;;4.45;90.53;100802.13;5104763;28;20512;-75
2020/12/21 02:41:24;;;;;;;8.13;5.20;;;;;;;4.37;90.88;100796.41;5102404;28;20511;-75
2020/12/21 02:43:50;;;;;;;13.40;5.07;;;;;;;4.38;90.76;100793.66;5109351;28;20476;-76
2020/12/21 02:46:17;;;;;;;13.87;5.07;;;;;;;4.42;91.06;100805.78;5115642;27;20512;-75
2020/12/21 02:48:43;;;;;;;10.30;5.00;;;;;;;4.52;90.49;100801.66;5104501;28;20455;-75
2020/12/21 02:51:10;;;;;;;15.07;4.93;;;;;;;4.57;90.43;100798.75;5102478;27;20510;-75
2020/12/21 02:53:36;;;;;;;13.27;5.60;;;;;;;4.50;90.58;100800.91;5105102;28;20433;-75
2020/12/21 02:56:04;;;;;;;7.30;4.50;;;;;;;4.49;90.64;100800.97;5103001;28;20466;-75
2020/12/21 02:58:30;;;;;;;12.40;5.70;;;;;;;4.61;90.27;100794.13;5104633;28;20455;-75
2020/12/21 03:00:56;;;;;;;9.00;4.67;;;;;;;4.55;90.29;100798.00;5102520;28;20506;-75
2020/12/21 03:03:22;;;;;;;10.83;5.17;;;;;;;4.55;89.86;100792.69;5106052;28;20465;-75
2020/12/21 03:05:49;;;;;;;12.67;5.50;;;;;;;4.55;89.72;100795.34;5107055;27;20474;-75
2020/12/21 03:08:16;;;;;;;8.93;5.30;;;;;;;4.67;89.15;100793.75;5108363;28;20487;-75
2020/12/21 03:10:42;;;;;;;11.37;5.90;;;;;;;4.59;89.63;100798.66;5106855;28;20463;-73
2020/12/21 03:13:09;;;;;;;10.43;5.40;;;;;;;4.53;89.67;100800.72;5107642;28;20431;-75
2020/12/21 03:15:36;;;;;;;22.87;5.37;;;;;;;4.57;89.52;100803.22;5106989;28;20467;-75
2020/12/21 03:18:02;;;;;;;11.50;5.30;;;;;;;4.51;89.73;100799.97;5107448;28;20501;-75
2020/12/21 03:20:28;;;;;;;8.03;4.17;;;;;;;4.59;89.51;100804.81;5106870;27;20857;-75
2020/12/21 03:22:54;;;;;;;14.80;4.40;;;;;;;4.63;89.42;100803.69;5107891;28;20439;-76
2020/12/21 03:25:21;;;;;;;11.80;4.30;;;;;;;4.46;89.48;100801.16;5106777;28;20446;-75
2020/12/21 03:27:47;;;;;;;12.57;4.50;;;;;;;4.67;89.04;100807.00;5107489;28;20506;-75
2020/12/21 03:30:14;;;;;;;11.17;3.80;;;;;;;4.55;89.54;100808.59;5106910;28;20423;-75
2020/12/21 03:32:40;;;;;;;14.87;4.40;;;;;;;4.52;89.69;100798.16;5106433;28;20451;-76
2020/12/21 03:35:07;;;;;;;7.93;3.63;;;;;;;4.65;89.02;100798.31;5109545;27;21152;-75
2020/12/21 03:37:34;;;;;;;10.30;3.97;;;;;;;4.67;89.10;100794.63;5114799;28;20473;-75
2020/12/21 03:40:00;;;;;;;7.20;3.93;;;;;;;4.63;89.08;100797.53;5107970;28;20463;-75
2020/12/21 03:42:26;;;;;;;8.80;3.90;;;;;;;4.59;89.11;100793.38;5105729;28;20481;-75
2020/12/21 03:44:52;;;;;;;8.80;3.53;;;;;;;4.56;89.35;100794.38;5107671;28;20443;-75
2020/12/21 03:47:19;;;;;;;12.00;3.67;;;;;;;4.78;88.23;100787.84;5105234;28;20573;-75
2020/12/21 03:49:46;;;;;;;4.97;3.17;;;;;;;4.74;88.43;100786.31;5108145;28;20444;-75
2020/12/21 03:52:12;;;;;;;11.07;4.40;;;;;;;4.68;88.42;100787.53;5105624;28;20483;-75
2020/12/21 03:54:38;;;;;;;11.03;3.87;;;;;;;4.68;88.59;100784.88;5107182;28;20454;-75
2020/12/21 03:57:04;;;;;;;19.27;5.20;;;;;;;4.61;88.66;100794.97;5106143;27;20498;-75
2020/12/21 03:59:30;;;;;;;12.67;4.30;;;;;;;4.65;88.73;100796.53;5107674;28;20438;-74
2020/12/21 04:01:56;;;;;;;15.47;4.73;;;;;;;4.69;88.17;100798.03;5104961;28;20494;-74
2020/12/21 04:04:23;;;;;;;9.60;3.77;;;;;;;4.67;88.32;100799.06;5107481;28;20451;-75
2020/12/21 04:06:50;;;;;;;10.70;4.57;;;;;;;4.65;88.28;100788.59;5105403;27;20501;-74
2020/12/21 04:09:16;;;;;;;8.13;2.90;;;;;;;4.66;88.21;100792.06;5107819;28;20431;-76
2020/12/21 04:11:42;;;;;;;8.83;3.87;;;;;;;4.67;88.28;100794.63;5104762;28;20478;-75
2020/12/21 04:14:08;;;;;;;5.60;3.97;;;;;;;4.67;88.08;100783.16;5115057;28;20454;-75
2020/12/21 04:16:34;;;;;;;10.73;3.40;;;;;;;4.68;88.03;100790.19;5109111;28;20470;-76
2020/12/21 04:19:02;;;;;;;12.67;4.20;;;;;;;4.72;87.72;100786.41;5106757;28;20451;-75
2020/12/21 04:21:29;;;;;;;11.37;4.57;;;;;;;4.64;88.22;100781.56;5104785;28;20546;-75
2020/12/21 04:23:55;;;;;;;9.50;3.43;;;;;;;4.55;88.58;100778.59;5107107;28;20443;-75
2020/12/21 04:26:22;;;;;;;9.70;3.70;;;;;;;4.50;88.52;100776.22;5104990;28;20485;-75
2020/12/21 04:28:48;;;;;;;9.63;3.70;;;;;;;4.44;88.82;100782.69;5106846;28;20462;-74
2020/12/21 04:31:14;;;;;;;8.10;3.50;;;;;;;4.42;88.97;100779.28;5105149;28;20470;-75
2020/12/21 04:33:40;;;;;;;8.37;3.70;;;;;;;4.42;89.01;100784.59;5106472;28;20449;-74
2020/12/21 04:36:08;;;;;;;6.87;3.10;;;;;;;4.39;89.03;100775.97;5116802;27;20501;-75
2020/12/21 04:38:36;;;;;;;11.23;3.63;;;;;;;4.57;88.12;100795.25;5126759;28;20434;-75
2020/12/21 04:41:02;;;;;;;7.47;3.57;;;;;;;4.67;87.88;100789.34;5112132;28;20459;-75
2020/12/21 04:43:29;;;;;;;16.20;4.33;;;;;;;4.66;87.90;100784.13;5106438;28;20436;-75
2020/12/21 04:45:55;;;;;;;10.80;3.83;;;;;;;4.73;87.67;100788.13;5104548;28;20467;-75
2020/12/21 04:48:23;;;;;;;8.03;3.83;;;;;;;4.74;87.75;100784.53;5105963;28;20483;-75
2020/12/21 04:50:52;;;;;;;10.30;4.10;;;;;;;4.83;86.77;100788.44;5104966;27;20471;-75
2020/12/21 04:53:18;;;;;;;7.93;3.40;;;;;;;4.86;86.79;100778.53;5106479;28;20427;-75
2020/12/21 04:55:45;;;;;;;9.03;4.53;;;;;;;4.78;87.03;100778.09;5104775;28;20474;-75
2020/12/21 04:58:12;;;;;;;7.83;4.40;;;;;;;4.78;86.90;100785.22;5105842;28;20435;-74
2020/12/21 05:00:38;;;;;;;6.77;3.30;;;;;;;4.69;87.24;100778.66;5104283;28;20491;-75
2020/12/21 05:03:05;;;;;;;9.10;3.70;;;;;;;4.61;87.52;100780.91;5105462;28;20547;-75
2020/12/21 05:05:32;;;;;;;8.87;3.67;;;;;;;4.57;87.58;100769.63;5104633;28;20483;-75
2020/12/21 05:08:08;;;;;;;13.07;3.63;;;;;;;4.47;88.08;100773.75;5105986;28;20521;-73
2020/12/21 05:10:34;;;;;;;10.30;3.60;;;;;;;4.45;88.43;100775.63;5104808;28;20469;-75
2020/12/21 05:13:02;;;;;;;7.37;3.30;;;;;;;4.58;87.73;100762.53;5099115;28;20458;-74
2020/12/21 05:15:29;;;;;;;7.93;3.70;;;;;;;4.61;87.67;100762.34;5098478;27;20455;-74
2020/12/21 05:18:09;;;;;;;9.70;4.13;;;;;;;4.49;88.04;100763.91;5104373;28;20459;-75
2020/12/21 05:20:36;;;;;;;12.80;4.27;;;;;;;4.44;88.08;100761.53;5105989;28;20457;-75
2020/12/21 05:23:03;;;;;;;9.67;3.70;;;;;;;4.37;88.41;100767.28;5104000;28;20442;-74
2020/12/21 05:25:30;;;;;;;7.20;3.27;;;;;;;4.30;88.98;100764.97;5102310;28;20475;-75
2020/12/21 05:27:58;;;;;;;13.50;4.43;;;;;;;4.40;88.53;100772.41;5104694;28;20510;-75
2020/12/21 05:30:25;;;;;;;7.97;3.40;;;;;;;4.38;88.59;100782.22;5102299;28;20466;-75
2020/12/21 05:33:00;;;;;;;9.20;3.57;;;;;;;4.56;87.90;100775.00;5104430;28;20459;-74
2020/12/21 05:35:28;;;;;;;7.13;3.37;;;;;;;4.51;88.10;100768.19;5103358;27;20466;-74
2020/12/21 05:37:54;;;;;;;9.03;3.60;;;;;;;4.64;87.29;100770.97;5103581;28;20439;-74
2020/12/21 05:40:24;;;;;;;14.57;3.77;;;;;;;4.64;87.46;100763.03;5103522;28;20440;-74
2020/12/21 05:42:50;;;;;;;5.20;3.90;;;;;;;4.76;86.51;100761.47;5104437;28;20458;-75
2020/12/21 05:45:16;;;;;;;7.07;2.90;;;;;;;4.74;87.27;100768.66;5120888;27;20478;-74
2020/12/21 05:47:48;;;;;;;6.37;3.40;;;;;;;4.74;86.67;100771.28;5105776;28;20506;-74
2020/12/21 05:50:20;;;;;;;8.53;3.13;;;;;;;4.74;87.05;100765.13;5103282;27;20499;-74
2020/12/21 05:52:52;;;;;;;10.37;3.00;;;;;;;4.78;86.76;100761.38;5103541;28;20459;-74
2020/12/21 05:55:20;;;;;;;7.23;3.40;;;;;;;4.89;86.29;100764.22;5102264;28;20493;-75
2020/12/21 05:57:48;;;;;;;9.03;3.90;;;;;;;4.88;86.00;100763.38;5103794;28;20530;-74
2020/12/21 06:00:15;;;;;;;9.83;4.23;;;;;;;4.92;85.39;100765.84;5084040;28;20469;-75
2020/12/21 06:02:42;;;;;;;7.37;3.00;;;;;;;4.82;85.79;100765.53;5108738;27;20455;-74
2020/12/21 06:05:10;;;;;;;7.60;3.73;;;;;;;4.62;87.14;100764.06;5139819;27;20487;-74
2020/12/21 06:07:37;;;;;;;6.20;3.50;;;;;;;4.49;87.57;100756.81;5126175;27;20473;-75
2020/12/21 06:10:05;;;;;;;6.77;3.40;;;;;;;4.43;87.55;100759.00;5124625;28;20479;-75
2020/12/21 06:12:37;;;;;;;7.27;3.43;;;;;;;4.38;87.88;100761.06;5099651;28;20463;-75
2020/12/21 06:15:08;;;;;;;7.90;3.43;;;;;;;4.37;87.87;100764.63;5103779;28;20471;-75
2020/12/21 06:17:35;;;;;;;7.73;3.33;;;;;;;4.24;88.42;100761.84;5142286;28;20461;-75
2020/12/21 06:20:10;;;;;;;14.30;4.80;;;;;;;4.24;88.17;100769.78;5143761;28;20441;-75
2020/12/21 06:22:37;;;;;;;9.00;3.67;;;;;;;4.03;88.95;100766.53;5143769;27;20463;-75
2020/12/21 06:25:04;;;;;;;5.67;4.10;;;;;;;4.04;89.04;100769.09;5144909;27;20488;-75
2020/12/21 06:27:41;;;;;;;9.17;4.30;;;;;;;4.08;88.86;100770.66;5142273;28;20484;-75
2020/12/21 06:30:08;;;;;;;9.03;4.90;;;;;;;4.24;88.33;100772.44;5143466;27;20448;-74
2020/12/21 06:32:35;;;;;;;8.00;4.27;;;;;;;4.42;87.19;100767.88;5142890;27;20449;-74
2020/12/21 06:35:02;;;;;;;8.90;4.37;;;;;;;4.36;87.47;100762.91;5143507;28;20456;-74
2020/12/21 06:37:30;;;;;;;18.40;3.60;;;;;;;4.60;86.92;100764.16;5145739;27;20577;-75
2020/12/21 06:40:01;;;;;;;8.70;3.60;;;;;;;4.57;86.74;100774.06;5148840;27;20476;-75
2020/12/21 06:42:27;;;;;;;5.43;3.40;;;;;;;4.65;86.19;100780.63;5146384;27;20467;-74
2020/12/21 06:44:55;;;;;;;8.83;3.87;;;;;;;4.69;86.40;100774.19;5148865;27;20486;-75
2020/12/21 06:47:22;;;;;;;5.33;2.80;;;;;;;4.65;86.50;100770.03;5145704;27;20480;-74
2020/12/21 06:49:49;;;;;;;7.53;2.73;;;;;;;4.66;86.63;100768.25;5148442;27;20426;-76
2020/12/21 06:52:15;;;;;;;11.60;3.50;;;;;;;4.53;87.23;100768.97;5146483;27;20469;-76
2020/12/21 06:54:43;;;;;;;7.80;3.47;;;;;;;4.69;86.49;100779.50;5145333;27;20528;-67
2020/12/21 06:57:09;;;;;;;5.70;3.47;;;;;;;4.66;86.70;100770.88;5140367;27;20479;-67
2020/12/21 06:59:35;;;;;;;10.80;3.20;;;;;;;4.57;87.61;100768.78;5144541;27;21038;-68
2020/12/21 07:02:01;;;;;;;10.73;3.17;;;;;;;4.59;86.96;100765.09;5143657;27;20492;-67
2020/12/21 07:04:29;;;;;;;5.97;3.30;;;;;;;4.47;87.52;100764.00;5143440;27;20452;-69
2020/12/21 07:06:56;;;;;;;10.50;4.40;;;;;;;4.33;88.32;100767.44;5142096;27;20488;-67
2020/12/21 07:09:23;;;;;;;7.80;2.90;;;;;;;4.41;87.53;100763.50;5144392;27;20449;-76
2020/12/21 07:11:54;;;;;;;15.43;3.80;;;;;;;4.31;87.69;100763.19;5140666;27;20470;-76
2020/12/21 07:14:21;;;;;;;5.77;3.67;;;;;;;4.30;87.83;100764.13;5139912;27;20502;-77
2020/12/21 07:16:47;;;;;;;6.77;3.80;;;;;;;4.23;88.16;100763.63;5142253;27;20473;-76
2020/12/21 07:19:14;;;;;;;12.90;4.67;;;;;;;4.25;88.21;100767.06;5139788;27;20995;-74
2020/12/21 07:21:40;;;;;;;5.93;3.70;;;;;;;4.28;87.94;100766.00;5144561;27;20481;-77
2020/12/21 07:24:07;;;;;;;9.03;3.53;;;;;;;4.25;88.03;100771.47;5147527;27;20461;-77
2020/12/21 07:26:33;;;;;;;11.07;3.10;;;;;;;4.28;88.11;100753.63;5146559;27;20509;-77
2020/12/21 07:29:00;;;;;;;12.87;3.47;;;;;;;4.19;88.55;100758.59;5148008;27;20441;-77
2020/12/21 07:31:27;;;;;;;7.47;3.77;;;;;;;4.21;88.26;100756.72;5147001;27;20581;-77
2020/12/21 07:33:55;;;;;;;9.63;3.97;;;;;;;4.34;87.46;100752.44;5147239;27;20994;-75
2020/12/21 07:36:23;;;;;;;6.93;3.17;;;;;;;4.32;87.36;100754.28;5146223;27;20473;-79
2020/12/21 07:38:50;;;;;;;7.90;4.90;;;;;;;4.32;87.32;100752.53;5147714;27;20456;-76
2020/12/21 07:41:17;;;;;;;10.73;3.37;;;;;;;4.41;87.05;100753.78;5145835;27;20491;-74
2020/12/21 07:43:45;;;;;;;11.80;3.10;;;;;;;4.31;87.33;100758.75;5146830;27;20437;-76
2020/12/21 07:46:20;;;;;;;6.23;2.60;;;;;;;4.46;86.37;100756.16;5146664;27;20542;-77
2020/12/21 07:48:46;;;;;;;9.70;4.50;;;;;;;4.55;86.06;100760.94;5145012;27;20444;-75
2020/12/21 07:51:14;;;;;;;13.47;2.70;;;;;;;4.52;85.82;100764.59;5146247;27;20836;-77
2020/12/21 07:53:41;;;;;;;6.77;3.10;;;;;;;4.50;85.78;100769.13;5147345;27;20453;-77
2020/12/21 07:56:07;;;;;;;9.23;3.17;;;;;;;4.53;85.62;100757.50;5144920;27;20465;-71
2020/12/21 07:58:35;;;;;;;6.60;2.87;;;;;;;4.55;85.74;100765.34;5144766;27;20486;-72
2020/12/21 08:01:01;;;;;;;16.47;8.97;;;;;;;4.57;85.45;100763.50;5147361;27;20505;-72
2020/12/21 08:03:30;;;;;;;7.23;3.27;;;;;;;4.65;85.18;100763.88;5145802;27;20474;-76
2020/12/21 08:06:12;;;;;;;9.80;3.20;;;;;;;4.75;84.76;100767.69;5144459;27;20869;-76
2020/12/21 08:08:39;;;;;;;7.83;3.07;;;;;;;4.78;84.78;100764.88;5146863;27;20480;-76
2020/12/21 08:11:12;;;;;;;11.47;5.53;;;;;;;4.84;83.53;100764.50;5143886;27;20708;-82
2020/12/21 08:13:38;;;;;;;6.53;3.70;;;;;;;4.98;83.20;100768.13;5143321;27;20434;-78
2020/12/21 08:16:05;;;;;;;4.60;2.77;;;;;;;4.90;82.79;100773.88;5145278;27;20530;-76
2020/12/21 08:18:32;;;;;;;3.63;2.30;;;;;;;5.11;82.13;100773.56;5148363;27;20450;-79
2020/12/21 08:20:59;;;;;;;6.63;2.70;;;;;;;5.13;81.67;100766.34;5143963;27;20556;-79
2020/12/21 08:23:26;;;;;;;7.80;3.50;;;;;;;4.93;81.84;100763.13;5146401;27;20786;-77
2020/12/21 08:25:52;;;;;;;5.60;3.17;;;;;;;4.85;82.83;100762.72;5145351;27;20461;-79
2020/12/21 08:28:32;;;;;;;7.93;3.00;;;;;;;4.90;82.84;100761.47;5146508;27;20582;-78
2020/12/21 08:31:06;;;;;;;7.07;3.97;;;;;;;4.79;83.13;100758.63;5152433;27;20848;-82
2020/12/21 08:33:34;;;;;;;8.13;3.20;;;;;;;4.94;82.66;100750.72;5160491;27;20449;-77
2020/12/21 08:36:22;;;;;;;7.17;3.10;;;;;;;4.92;82.80;100749.94;5147535;27;20469;-80
2020/12/21 08:38:49;;;;;;;6.83;2.77;;;;;;;5.09;81.61;100747.97;5146391;27;20453;-80
2020/12/21 08:41:16;;;;;;;5.67;2.70;;;;;;;5.46;80.32;100744.88;5145045;27;20454;-76
2020/12/21 08:43:42;;;;;;;5.30;2.77;;;;;;;5.59;80.02;100743.16;5145718;27;20449;-76
2020/12/21 08:46:10;;;;;;;8.73;2.70;;;;;;;5.73;79.09;100739.63;5144961;27;20488;-77
2020/12/21 08:48:39;;;;;;;4.90;2.10;;;;;;;5.90;78.77;100741.19;5145774;27;20477;-78
2020/12/21 08:51:05;;;;;;;7.07;2.77;;;;;;;6.27;77.08;100736.19;5143663;27;20461;-77
2020/12/21 08:53:31;;;;;;;6.77;2.30;;;;;;;6.64;76.91;100730.25;5145617;27;20444;-76
2020/12/21 08:55:57;;;;;;;9.90;2.80;;;;;;;7.04;75.17;100731.00;5144694;27;20488;-79
2020/12/21 08:58:23;;;;;;;3.77;2.10;;;;;;;7.37;73.17;100744.72;5144180;27;20811;-78
2020/12/21 09:00:50;;;;;;;8.33;2.90;;;;;;;7.85;71.07;100747.53;5154285;27;21066;-80
2020/12/21 09:03:16;;;;;;;5.30;1.90;;;;;;;7.92;70.19;100738.97;5165791;27;20467;-78
2020/12/21 09:05:43;;;;;;;8.63;2.40;;;;;;;8.37;68.84;100738.38;5155273;27;20525;-78
2020/12/21 09:08:09;;;;;;;4.70;2.20;;;;;;;8.40;68.49;100740.81;5143882;27;20484;-75
2020/12/21 09:10:35;;;;;;;4.60;1.80;;;;;;;8.50;68.03;100743.66;5144451;27;20473;-79
2020/12/21 09:13:01;;;;;;;9.30;2.90;;;;;;;9.01;66.41;100742.50;5139157;27;20947;-79
2020/12/21 09:15:28;;;;;;;4.90;2.43;;;;;;;7.99;68.63;100738.53;5160860;27;20511;-79
2020/12/21 09:17:54;;;;;;;5.50;2.33;;;;;;;8.09;68.21;100732.41;5144086;27;20445;-80
2020/12/21 09:20:20;;;;;;;7.07;2.90;;;;;;;8.27;69.33;100724.03;5143562;27;20530;-82
2020/12/21 09:22:47;;;;;;;6.77;2.60;;;;;;;8.47;68.08;100720.75;5145847;27;20468;-80
2020/12/21 09:25:16;;;;;;;5.93;2.30;;;;;;;8.21;68.17;100725.34;5144174;27;20441;-78
2020/12/21 09:27:43;;;;;;;6.63;2.53;;;;;;;8.04;68.02;100715.94;5130449;27;20505;-75
2020/12/21 09:30:09;;;;;;;6.47;3.20;;;;;;;8.17;68.69;100726.50;5146853;27;20515;-77
2020/12/21 09:32:35;;;;;;;8.07;3.43;;;;;;;9.12;66.38;100725.66;5158792;27;20490;-78
2020/12/21 09:35:01;;;;;;;5.07;2.23;;;;;;;8.16;68.01;100723.97;5142232;27;20449;-79
2020/12/21 09:37:28;;;;;;;7.57;2.63;;;;;;;8.85;66.38;100710.78;5143044;27;20465;-80
2020/12/21 09:39:55;;;;;;;10.23;2.67;;;;;;;8.86;65.50;100701.84;5143871;27;20445;-77
2020/12/21 09:42:21;;;;;;;6.33;2.80;;;;;;;8.85;65.64;100710.78;5132688;27;20465;-79
2020/12/21 09:44:50;;;;;;;5.77;2.63;;;;;;;8.95;65.44;100709.13;5143052;27;20449;-80
2020/12/21 09:47:16;;;;;;;6.37;3.17;;;;;;;8.62;66.89;100705.41;5147023;27;20476;-81
2020/12/21 09:49:42;;;;;;;8.43;3.07;;;;;;;8.76;66.38;100709.69;5123229;28;20458;-81
2020/12/21 09:52:08;;;;;;;8.37;3.90;;;;;;;9.07;65.71;100702.00;5121824;28;20469;-82
2020/12/21 09:54:34;;;;;;;6.53;3.00;;;;;;;8.65;66.77;100702.53;5122952;28;20442;-79
2020/12/21 09:57:02;;;;;;;6.00;2.50;;;;;;;8.79;67.33;100692.63;5120206;28;21019;-81
2020/12/21 09:59:28;;;;;;;4.97;3.00;;;;;;;8.36;67.86;100688.69;5123867;28;20442;-77
2020/12/21 10:01:54;;;;;;;3.30;2.00;;;;;;;7.97;69.43;100700.50;5107954;28;20470;-78
2020/12/21 10:04:20;;;;;;;4.87;2.60;;;;;;;7.63;70.91;100695.00;5121117;28;20491;-79
2020/12/21 10:06:49;;;;;;;8.20;3.07;;;;;;;6.74;74.00;100680.84;5120283;28;20499;-78
2020/12/21 10:09:16;;;;;;;6.97;3.00;;;;;;;6.54;75.40;100680.34;5123352;28;20873;-78
2020/12/21 10:11:42;;;;;;;3.60;2.60;;;;;;;6.26;76.20;100678.72;5122959;28;20519;-78
2020/12/21 10:14:09;;;;;;;6.80;3.63;;;;;;;5.96;77.72;100685.09;5120787;28;20464;-73
2020/12/21 10:16:36;;;;;;;6.30;3.50;;;;;;;5.95;78.23;100678.03;5121538;28;20466;-76
2020/12/21 10:19:02;;;;;;;8.07;3.70;;;;;;;5.83;78.86;100684.16;5123470;28;20537;-77
2020/12/21 10:21:28;;;;;;;4.27;3.00;;;;;;;5.85;78.65;100666.34;5123160;28;20461;-79
2020/12/21 10:23:54;;;;;;;4.80;3.07;;;;;;;5.70;79.46;100656.75;5124410;28;20446;-75
2020/12/21 10:26:20;;;;;;;8.87;3.50;;;;;;;5.64;79.59;100657.97;5123332;28;20477;-77
2020/12/21 10:28:47;;;;;;;7.60;3.47;;;;;;;5.67;79.48;100660.44;5128498;28;20981;-79
2020/12/21 10:31:14;;;;;;;7.53;3.80;;;;;;;5.62;79.67;100647.47;5123024;28;20938;-76
2020/12/21 10:33:41;;;;;;;3.50;3.00;;;;;;;5.66;79.52;100635.72;5121227;28;20476;-71
2020/12/21 10:36:07;;;;;;;11.90;3.20;;;;;;;5.69;79.84;100639.09;5119238;28;20465;-79
2020/12/21 10:38:33;;;;;;;4.63;2.60;;;;;;;5.87;78.70;100627.31;5123997;28;20435;-76
2020/12/21 10:41:00;;;;;;;7.43;3.37;;;;;;;5.77;78.85;100624.41;5122367;28;20623;-76
2020/12/21 10:43:26;;;;;;;8.63;3.77;;;;;;;5.89;79.21;100612.13;5118543;28;20491;-77
2020/12/21 10:45:52;;;;;;;7.33;4.83;;;;;;;5.89;78.59;100613.94;5120854;28;20474;-75
2020/12/21 10:48:19;;;;;;;6.73;3.20;;;;;;;6.01;78.46;100611.34;5123363;28;20490;-75
2020/12/21 10:50:46;;;;;;;5.00;2.43;;;;;;;6.10;78.31;100609.03;5122474;28;20612;-81
2020/12/21 10:53:12;;;;;;;6.60;3.20;;;;;;;6.07;78.75;100611.88;5124799;28;20435;-76
2020/12/21 10:55:39;;;;;;;4.93;3.23;;;;;;;6.05;77.57;100605.84;5121750;28;20996;-80
2020/12/21 10:58:05;;;;;;;6.33;2.50;;;;;;;6.13;78.73;100596.41;5123825;28;20925;-80
2020/12/21 11:00:31;;;;;;;9.40;3.03;;;;;;;6.19;77.38;100613.72;5117014;28;20462;-79
2020/12/21 11:02:58;;;;;;;7.87;3.20;;;;;;;6.22;77.15;100606.38;5121631;28;20466;-78
2020/12/21 11:05:25;;;;;;;12.67;4.20;;;;;;;6.33;77.52;100612.78;5118684;28;20462;-78
2020/12/21 11:07:51;;;;;;;3.40;2.30;;;;;;;6.34;77.24;100591.44;5122233;28;20472;-74
2020/12/21 11:10:17;;;;;;;7.57;2.83;;;;;;;6.31;76.81;100590.78;5105963;28;20450;-73
2020/12/21 11:12:43;;;;;;;6.77;2.90;;;;;;;6.37;77.22;100588.56;5116112;28;20463;-76
2020/12/21 11:15:10;;;;;;;8.60;4.57;;;;;;;6.40;76.77;100588.34;5118804;28;20446;-78
2020/12/21 11:17:36;;;;;;;8.47;3.50;;;;;;;6.37;76.92;100580.59;5122371;28;20452;-76
2020/12/21 11:20:03;;;;;;;8.47;5.90;;;;;;;6.38;76.86;100569.00;5119883;28;20475;-76
2020/12/21 11:22:30;;;;;;;6.70;2.67;;;;;;;6.38;77.44;100565.50;5121494;28;20462;-77
2020/12/21 11:24:56;;;;;;;5.23;2.40;;;;;;;6.45;76.78;100561.47;5125367;28;20456;-76
2020/12/21 11:27:24;;;;;;;10.57;3.20;;;;;;;6.48;76.76;100558.59;5124922;28;20502;-76